Time;durP1;ratioP1;P1;durP2;ratioP2;P2;SDS_P1;SDS_P2;PMS_P1;PMS_P2;Temp;Humidity;BMP_temperature;BMP_pressure;BME280_temperature;BME280_humidity;BME280_pressure;Samples;Min_cycle;Max_cycle;Signal;HPM_P1;HPM_P2
2022/06/12 00:02:08;;;;;;;28.17;16.80;;;20.60;99.90;;;;;;5092400;28;20729;-71
2022/06/12 00:04:36;;;;;;;30.23;16.53;;;20.70;99.90;;;;;;5092218;28;20295;-69
2022/06/12 00:07:04;;;;;;;26.43;17.17;;;20.60;99.90;;;;;;5092270;28;20209;-68
2022/06/12 00:09:32;;;;;;;29.33;16.43;;;20.60;99.90;;;;;;5091272;28;20209;-70
2022/06/12 00:11:59;;;;;;;31.00;18.20;;;20.60;99.90;;;;;;5092405;28;20208;-68
2022/06/12 00:14:26;;;;;;;28.50;17.37;;;20.50;99.90;;;;;;5091581;28;20232;-68
2022/06/12 00:16:54;;;;;;;27.97;17.90;;;20.40;99.90;;;;;;5091607;28;20195;-69
2022/06/12 00:19:22;;;;;;;26.70;16.90;;;20.30;99.90;;;;;;5091839;28;20231;-69
2022/06/12 00:21:50;;;;;;;28.30;18.10;;;20.20;99.90;;;;;;5091261;28;20283;-68
2022/06/12 00:24:20;;;;;;;29.33;18.63;;;20.20;99.90;;;;;;5092069;28;20215;-69
2022/06/12 00:26:52;;;;;;;26.83;17.87;;;20.20;99.90;;;;;;5092149;28;20208;-69
2022/06/12 00:29:21;;;;;;;27.73;17.57;;;20.20;99.90;;;;;;5091419;28;20276;-69
2022/06/12 00:31:50;;;;;;;26.13;18.30;;;20.10;99.90;;;;;;5091590;28;20287;-69
2022/06/12 00:34:19;;;;;;;30.07;17.80;;;20.10;99.90;;;;;;5091650;28;20295;-70
2022/06/12 00:36:46;;;;;;;29.20;17.97;;;20.00;99.90;;;;;;5091904;28;20302;-68
2022/06/12 00:39:15;;;;;;;26.33;17.53;;;20.00;99.90;;;;;;5091450;28;20246;-69
2022/06/12 00:41:43;;;;;;;26.07;16.80;;;20.00;99.90;;;;;;5091657;28;20228;-69
2022/06/12 00:44:17;;;;;;;23.60;15.70;;;20.00;99.90;;;;;;5091341;28;20246;-68
2022/06/12 00:46:48;;;;;;;29.07;16.70;;;19.90;99.90;;;;;;5091428;28;20189;-69
2022/06/12 00:49:20;;;;;;;21.60;15.17;;;20.00;99.90;;;;;;5090733;28;20223;-69
2022/06/12 00:51:51;;;;;;;20.37;14.90;;;20.00;99.90;;;;;;5091811;28;20622;-71
2022/06/12 00:54:19;;;;;;;22.57;14.80;;;19.90;99.90;;;;;;5091588;28;20680;-68
2022/06/12 00:56:50;;;;;;;23.13;15.23;;;19.90;99.90;;;;;;5091366;28;20349;-69
2022/06/12 00:59:27;;;;;;;20.27;13.87;;;20.00;99.90;;;;;;5091371;28;20207;-69
2022/06/12 01:01:54;;;;;;;19.17;14.43;;;19.90;99.90;;;;;;5091597;28;20195;-69
2022/06/12 01:07:10;;;;;;;18.23;13.47;;;19.90;99.90;;;;;;5090886;28;20203;-69
2022/06/12 01:09:43;;;;;;;17.57;13.37;;;19.90;99.90;;;;;;5091632;28;20229;-69
2022/06/12 01:12:14;;;;;;;16.30;12.87;;;19.90;99.90;;;;;;5091258;28;20199;-70
2022/06/12 01:14:47;;;;;;;16.47;12.73;;;19.90;99.90;;;;;;5091053;28;20619;-69
2022/06/12 01:17:15;;;;;;;18.13;12.67;;;19.90;99.90;;;;;;5090976;28;20259;-70
2022/06/12 01:19:47;;;;;;;19.33;13.00;;;19.80;99.90;;;;;;5092516;28;20330;-69
2022/06/12 01:22:58;;;;;;;15.03;12.47;;;19.90;99.90;;;;;;5095253;28;20285;-68
2022/06/12 01:25:51;;;;;;;16.33;12.67;;;19.80;99.90;;;;;;5032747;28;20703;-69
2022/06/12 01:28:44;;;;;;;16.90;13.10;;;19.80;99.90;;;;;;5095343;28;20287;-69
2022/06/12 01:31:44;;;;;;;19.43;13.23;;;19.80;99.90;;;;;;5094977;28;20231;-69
2022/06/12 01:34:27;;;;;;;19.87;12.33;;;19.80;99.90;;;;;;5058282;28;20204;-69
2022/06/12 01:37:04;;;;;;;16.17;12.10;;;19.70;99.90;;;;;;5095203;28;20192;-70
2022/06/12 01:39:39;;;;;;;21.57;13.70;;;19.70;99.90;;;;;;5095122;28;20214;-69
2022/06/12 01:42:16;;;;;;;16.47;12.87;;;19.70;99.90;;;;;;5095181;28;20711;-68
2022/06/12 01:44:48;;;;;;;18.20;12.90;;;19.70;99.90;;;;;;5094753;28;20271;-69
2022/06/12 01:47:25;;;;;;;16.20;12.37;;;19.60;99.90;;;;;;5074678;28;20277;-70
2022/06/12 01:49:59;;;;;;;15.70;12.53;;;19.70;99.90;;;;;;5088664;28;20687;-69
2022/06/12 01:52:32;;;;;;;17.20;12.73;;;19.70;99.90;;;;;;5094742;28;20287;-69
2022/06/12 01:55:09;;;;;;;15.77;12.73;;;19.70;99.90;;;;;;5094793;28;20287;-69
2022/06/12 01:57:44;;;;;;;16.30;12.43;;;19.60;99.90;;;;;;5094586;28;20330;-69
2022/06/12 02:00:16;;;;;;;16.27;12.30;;;19.60;99.90;;;;;;5094006;28;20302;-69
2022/06/12 02:02:48;;;;;;;15.43;12.80;;;19.60;99.90;;;;;;5094896;28;20275;-68
2022/06/12 02:05:22;;;;;;;15.47;12.23;;;19.60;99.90;;;;;;5094590;28;20184;-69
2022/06/12 02:07:55;;;;;;;17.83;12.97;;;19.50;99.90;;;;;;5094442;28;20189;-68
2022/06/12 02:10:27;;;;;;;16.30;12.77;;;19.50;99.90;;;;;;5094286;28;20281;-70
2022/06/12 02:13:13;;;;;;;19.37;13.13;;;19.50;99.90;;;;;;5094070;28;20198;-69
2022/06/12 02:15:49;;;;;;;14.70;12.63;;;19.50;99.90;;;;;;5094162;28;20199;-69
2022/06/12 02:18:23;;;;;;;18.27;12.60;;;19.50;99.90;;;;;;5094304;28;20209;-69
2022/06/12 02:20:58;;;;;;;17.27;12.77;;;19.50;99.90;;;;;;5094169;28;20197;-69
2022/06/12 02:23:31;;;;;;;17.97;13.07;;;19.50;99.90;;;;;;5094563;28;20668;-70
2022/06/12 02:25:59;;;;;;;16.53;13.30;;;19.50;99.90;;;;;;5094211;28;20345;-70
2022/06/12 02:28:32;;;;;;;17.33;13.83;;;19.40;99.90;;;;;;5094305;28;20286;-69
2022/06/12 02:31:06;;;;;;;15.87;13.30;;;19.40;99.90;;;;;;5093262;28;20197;-69
2022/06/12 02:33:37;;;;;;;19.00;13.83;;;19.40;99.90;;;;;;5093995;28;20281;-69
2022/06/12 02:36:09;;;;;;;19.27;13.43;;;19.30;99.90;;;;;;5093804;28;20188;-69
2022/06/12 02:38:40;;;;;;;19.90;14.03;;;19.30;99.90;;;;;;5093679;28;20213;-68
2022/06/12 02:41:11;;;;;;;15.30;13.07;;;19.30;99.90;;;;;;5093964;28;20209;-69
2022/06/12 02:43:42;;;;;;;19.40;14.03;;;19.30;99.90;;;;;;5093901;28;20190;-70
2022/06/12 02:46:15;;;;;;;20.20;14.73;;;19.30;99.90;;;;;;5094126;28;20630;-69
2022/06/12 02:48:42;;;;;;;17.53;13.37;;;19.20;99.90;;;;;;5093658;28;20191;-70
2022/06/12 02:51:17;;;;;;;24.07;15.10;;;19.30;99.90;;;;;;5093951;28;20217;-71
2022/06/12 02:53:58;;;;;;;17.33;12.80;;;19.30;99.90;;;;;;5093399;28;20276;-69
2022/06/12 02:56:32;;;;;;;21.73;14.63;;;19.20;99.90;;;;;;5093829;28;20245;-70
2022/06/12 02:59:07;;;;;;;19.33;13.50;;;19.20;99.90;;;;;;5093678;28;20268;-68
2022/06/12 03:01:43;;;;;;;16.70;13.17;;;19.30;99.90;;;;;;5093442;28;20189;-68
2022/06/12 03:04:20;;;;;;;17.40;13.10;;;19.40;99.90;;;;;;5093508;28;20711;-69
2022/06/12 03:06:47;;;;;;;17.73;14.03;;;19.40;99.90;;;;;;5093516;28;20192;-69
2022/06/12 03:09:14;;;;;;;16.97;13.37;;;19.30;99.90;;;;;;5093734;28;20269;-68
2022/06/12 03:11:44;;;;;;;16.37;13.43;;;19.40;99.90;;;;;;5093105;28;20339;-70
2022/06/12 03:14:14;;;;;;;17.97;13.20;;;19.40;99.90;;;;;;5092950;28;20206;-69
2022/06/12 03:16:44;;;;;;;17.70;13.47;;;19.50;99.90;;;;;;5093356;28;20192;-69
2022/06/12 03:19:16;;;;;;;19.27;13.90;;;19.60;99.90;;;;;;5093169;28;20215;-69
2022/06/12 03:21:49;;;;;;;22.27;14.27;;;19.70;99.90;;;;;;5092860;28;20653;-69
2022/06/12 03:24:30;;;;;;;19.20;14.27;;;19.70;99.90;;;;;;5093698;28;20277;-69
2022/06/12 03:27:11;;;;;;;19.10;14.03;;;19.70;99.90;;;;;;5093065;28;20283;-69
2022/06/12 03:29:48;;;;;;;19.70;14.30;;;19.80;99.90;;;;;;5093065;28;20275;-69
2022/06/12 03:32:23;;;;;;;17.00;13.03;;;19.90;99.90;;;;;;5093002;28;20275;-69
2022/06/12 03:35:00;;;;;;;17.87;13.23;;;20.00;99.90;;;;;;5092578;28;20267;-69
2022/06/12 03:37:37;;;;;;;17.60;13.37;;;20.00;99.90;;;;;;5093088;28;20191;-69
2022/06/12 03:40:09;;;;;;;17.37;13.70;;;20.10;99.90;;;;;;5093140;28;20234;-68
2022/06/12 03:42:44;;;;;;;18.27;13.10;;;20.10;99.90;;;;;;5093216;28;20188;-69
2022/06/12 03:45:16;;;;;;;19.77;14.33;;;20.20;99.90;;;;;;5093021;28;20241;-70
2022/06/12 03:47:51;;;;;;;21.20;15.27;;;20.30;99.90;;;;;;5092413;28;20691;-69
2022/06/12 03:50:27;;;;;;;21.20;14.60;;;20.40;99.90;;;;;;5092900;28;20187;-69
2022/06/12 03:53:01;;;;;;;17.50;13.57;;;20.50;99.90;;;;;;5092299;28;20284;-69
2022/06/12 03:58:23;;;;;;;18.70;12.87;;;20.50;99.90;;;;;;5092190;28;20226;-69
2022/06/12 04:00:52;;;;;;;17.20;13.67;;;20.50;99.90;;;;;;5091823;28;20624;-68
2022/06/12 04:03:24;;;;;;;17.70;14.57;;;20.60;99.90;;;;;;5091951;28;20199;-69
2022/06/12 04:05:57;;;;;;;22.37;14.63;;;20.70;99.90;;;;;;5092242;28;20196;-69
2022/06/12 04:08:26;;;;;;;18.67;14.57;;;20.70;99.90;;;;;;5092449;28;20629;-69
2022/06/12 04:10:55;;;;;;;17.27;13.90;;;20.70;99.90;;;;;;5091963;28;20522;-68
2022/06/12 04:13:23;;;;;;;17.13;13.70;;;20.80;99.90;;;;;;5092080;28;20612;-69
2022/06/12 04:15:55;;;;;;;18.53;13.63;;;20.80;99.90;;;;;;5091554;28;20289;-69
2022/06/12 04:18:25;;;;;;;17.93;13.90;;;20.90;99.90;;;;;;5092230;28;20606;-68
2022/06/12 04:20:57;;;;;;;18.40;14.50;;;20.90;99.90;;;;;;5091550;28;20231;-68
2022/06/12 04:23:33;;;;;;;18.80;13.90;;;21.10;99.90;;;;;;5071870;28;20714;-69
2022/06/12 04:26:07;;;;;;;17.53;14.03;;;21.10;99.90;;;;;;5071756;28;20614;-70
2022/06/12 04:28:37;;;;;;;17.63;13.60;;;21.20;99.90;;;;;;5087096;28;20219;-68
2022/06/12 04:31:08;;;;;;;17.93;14.37;;;21.30;99.90;;;;;;5091800;28;20278;-69
2022/06/12 04:33:49;;;;;;;18.47;13.97;;;21.30;99.90;;;;;;5091615;28;20628;-69
2022/06/12 04:36:16;;;;;;;18.40;13.17;;;21.30;99.90;;;;;;5091578;28;20556;-68
2022/06/12 04:38:43;;;;;;;18.23;13.53;;;21.40;99.90;;;;;;5091080;28;20295;-69
2022/06/12 04:41:19;;;;;;;19.30;13.20;;;21.50;99.90;;;;;;5091814;28;20233;-69
2022/06/12 04:43:46;;;;;;;15.30;12.57;;;21.60;99.90;;;;;;5091070;28;20598;-69
2022/06/12 04:46:12;;;;;;;16.70;12.60;;;21.70;99.90;;;;;;5091746;28;20291;-68
2022/06/12 04:48:46;;;;;;;17.67;12.47;;;21.80;99.90;;;;;;5091534;28;20784;-68
2022/06/12 04:51:14;;;;;;;18.10;12.90;;;21.90;99.90;;;;;;5091709;28;20261;-69
2022/06/12 04:53:42;;;;;;;17.20;13.63;;;22.00;99.90;;;;;;5091434;28;20291;-69
2022/06/12 04:56:10;;;;;;;19.07;13.93;;;22.10;99.90;;;;;;5091035;28;20261;-69
2022/06/12 04:58:39;;;;;;;17.80;12.83;;;22.10;99.90;;;;;;5090743;28;20235;-70
2022/06/12 05:01:06;;;;;;;18.97;13.93;;;22.10;99.90;;;;;;5091430;28;20255;-69
2022/06/12 05:03:33;;;;;;;16.80;13.27;;;22.10;99.90;;;;;;5091231;28;20208;-69
2022/06/12 05:06:02;;;;;;;18.73;13.47;;;22.20;99.90;;;;;;5091593;28;20637;-69
2022/06/12 05:08:29;;;;;;;17.87;13.03;;;22.20;99.90;;;;;;5091367;28;20283;-69
2022/06/12 05:10:56;;;;;;;17.43;13.77;;;22.20;99.90;;;;;;5091836;28;20207;-73
2022/06/12 05:13:23;;;;;;;18.37;13.47;;;22.20;99.90;;;;;;5092056;28;20269;-71
2022/06/12 05:15:50;;;;;;;16.97;12.80;;;22.30;99.90;;;;;;5093422;28;20204;-73
2022/06/12 05:18:18;;;;;;;15.57;12.97;;;22.30;99.90;;;;;;5091705;28;20208;-70
2022/06/12 05:20:46;;;;;;;16.70;12.90;;;22.30;99.90;;;;;;5091002;28;20684;-67
2022/06/12 05:23:15;;;;;;;18.37;13.27;;;22.40;99.90;;;;;;5091697;28;20204;-70
2022/06/12 05:25:43;;;;;;;14.80;11.93;;;22.50;99.90;;;;;;5090977;28;20204;-70
2022/06/12 05:28:11;;;;;;;17.27;13.17;;;22.50;99.90;;;;;;5090880;28;20560;-71
2022/06/12 05:30:38;;;;;;;14.90;13.00;;;22.60;99.90;;;;;;5090721;28;20196;-72
2022/06/12 05:33:05;;;;;;;17.70;13.67;;;22.70;99.90;;;;;;5091024;28;20207;-69
2022/06/12 05:35:34;;;;;;;15.83;13.40;;;22.80;99.90;;;;;;5091394;28;20303;-71
2022/06/12 05:38:01;;;;;;;18.13;13.23;;;22.80;99.90;;;;;;5091409;28;20261;-69
2022/06/12 05:40:31;;;;;;;16.80;13.23;;;22.90;99.90;;;;;;5091086;28;20307;-69
2022/06/12 05:42:58;;;;;;;19.03;12.77;;;22.80;99.90;;;;;;5091227;28;20696;-68
2022/06/12 05:45:27;;;;;;;15.73;12.13;;;22.80;99.90;;;;;;5091080;28;20314;-69
2022/06/12 05:47:57;;;;;;;18.63;13.80;;;22.80;99.90;;;;;;5090545;28;20246;-70
2022/06/12 05:50:29;;;;;;;16.77;12.83;;;22.90;99.90;;;;;;5090897;28;20280;-69
2022/06/12 05:52:56;;;;;;;16.43;13.00;;;23.10;99.90;;;;;;5091314;28;20277;-69
2022/06/12 05:55:23;;;;;;;17.33;12.93;;;23.20;99.90;;;;;;5091089;28;20586;-69
2022/06/12 05:57:51;;;;;;;20.83;12.37;;;23.20;99.90;;;;;;5091016;28;20773;-70
2022/06/12 06:00:22;;;;;;;16.60;12.33;;;23.30;99.90;;;;;;5090508;28;20225;-68
2022/06/12 06:02:49;;;;;;;18.70;12.33;;;23.40;99.90;;;;;;5091481;28;20698;-70
2022/06/12 06:05:17;;;;;;;15.50;11.70;;;23.50;99.90;;;;;;5089145;28;20199;-70
2022/06/12 06:07:44;;;;;;;14.60;11.63;;;23.50;99.90;;;;;;5093008;28;20244;-70
2022/06/12 06:10:16;;;;;;;16.00;11.27;;;23.60;99.90;;;;;;5093996;28;20210;-69
2022/06/12 06:12:43;;;;;;;14.90;10.60;;;23.80;99.90;;;;;;5094004;28;20203;-71
2022/06/12 06:15:13;;;;;;;14.23;10.27;;;23.80;99.90;;;;;;5093627;28;20205;-70
2022/06/12 06:17:40;;;;;;;18.40;10.00;;;23.90;99.90;;;;;;5093355;28;20201;-69
2022/06/12 06:20:09;;;;;;;15.13;9.80;;;24.00;99.90;;;;;;5093519;28;20229;-69
2022/06/12 06:22:36;;;;;;;11.90;9.33;;;24.10;99.90;;;;;;5057420;28;20199;-70
2022/06/12 06:25:04;;;;;;;13.73;9.27;;;24.20;99.90;;;;;;5093814;28;20204;-69
2022/06/12 06:27:31;;;;;;;11.10;9.10;;;24.30;99.90;;;;;;5093326;28;20190;-69
2022/06/12 06:29:58;;;;;;;10.73;9.13;;;24.30;99.90;;;;;;5093504;28;20201;-68
2022/06/12 06:32:26;;;;;;;12.70;9.30;;;24.30;99.90;;;;;;5093092;28;20200;-69
2022/06/12 06:34:53;;;;;;;10.93;8.80;;;24.40;99.90;;;;;;5093517;28;20289;-68
2022/06/12 06:37:20;;;;;;;12.73;7.93;;;24.50;99.90;;;;;;5093535;28;20561;-72
2022/06/12 06:39:47;;;;;;;12.07;7.50;;;24.50;99.90;;;;;;5093206;28;20222;-69
2022/06/12 06:42:14;;;;;;;9.80;7.83;;;24.60;99.90;;;;;;5092744;28;20209;-68
2022/06/12 06:47:27;;;;;;;10.30;7.30;;;24.70;99.90;;;;;;5092744;28;20184;-70
2022/06/12 06:49:54;;;;;;;8.57;6.70;;;24.80;99.90;;;;;;5094146;28;20213;-69
2022/06/12 06:52:21;;;;;;;8.50;6.90;;;24.90;99.90;;;;;;5093449;28;20209;-72
2022/06/12 06:54:48;;;;;;;8.03;6.90;;;25.00;99.90;;;;;;5093746;28;20659;-68
2022/06/12 06:57:15;;;;;;;11.17;7.07;;;25.10;99.90;;;;;;5092918;28;20740;-69
2022/06/12 06:59:42;;;;;;;8.90;6.70;;;25.10;99.90;;;;;;5093480;28;20268;-70
2022/06/12 07:02:10;;;;;;;10.07;7.23;;;25.10;99.90;;;;;;5093267;28;20294;-72
2022/06/12 07:04:39;;;;;;;7.93;7.03;;;25.20;99.90;;;;;;5093536;28;20256;-70
2022/06/12 07:07:06;;;;;;;10.60;6.93;;;25.30;99.90;;;;;;5092774;28;20219;-70
2022/06/12 07:09:33;;;;;;;12.00;7.13;;;25.30;99.90;;;;;;5092358;28;20574;-69
2022/06/12 07:12:00;;;;;;;8.83;7.33;;;25.30;99.90;;;;;;5084030;28;20639;-71
2022/06/12 07:14:28;;;;;;;8.27;6.70;;;25.40;99.90;;;;;;5081248;28;20210;-68
2022/06/12 07:16:56;;;;;;;8.30;7.13;;;25.50;99.90;;;;;;5093632;28;20296;-72
2022/06/12 07:19:23;;;;;;;10.53;7.87;;;25.50;99.90;;;;;;5075912;28;20199;-70
2022/06/12 07:21:51;;;;;;;8.63;7.33;;;25.50;99.90;;;;;;5073028;28;20226;-69
2022/06/12 07:24:19;;;;;;;11.00;7.10;;;25.60;99.90;;;;;;5083225;28;20820;-70
2022/06/12 07:26:47;;;;;;;7.67;6.83;;;25.70;99.90;;;;;;5093810;28;20571;-71
2022/06/12 07:29:15;;;;;;;12.03;7.57;;;25.70;99.90;;;;;;5092904;28;20637;-70
2022/06/12 07:31:42;;;;;;;8.63;7.33;;;25.70;99.90;;;;;;5091875;28;20199;-71
2022/06/12 07:34:12;;;;;;;11.03;7.10;;;25.70;99.90;;;;;;5081604;28;20286;-70
2022/06/12 07:36:40;;;;;;;8.03;6.80;;;25.70;99.90;;;;;;5093224;28;20201;-71
2022/06/12 07:39:12;;;;;;;10.07;6.77;;;25.80;99.90;;;;;;5092450;28;20297;-71
2022/06/12 07:41:40;;;;;;;11.53;6.93;;;25.80;99.90;;;;;;5091775;28;20199;-71
2022/06/12 07:44:08;;;;;;;9.10;7.17;;;25.90;99.90;;;;;;5092709;28;20206;-70
2022/06/12 07:46:35;;;;;;;15.17;7.80;;;26.00;99.90;;;;;;5092850;28;20212;-71
2022/06/12 07:49:02;;;;;;;13.17;8.37;;;26.00;99.90;;;;;;5092739;28;20297;-71
2022/06/12 07:51:29;;;;;;;12.30;7.93;;;26.10;99.90;;;;;;5092822;28;20315;-72
2022/06/12 07:53:57;;;;;;;8.18;6.57;;;26.20;99.90;;;;;;5092874;28;20659;-71
2022/06/12 07:56:26;;;;;;;7.70;6.90;;;26.30;99.90;;;;;;5092168;28;20205;-70
2022/06/12 07:58:53;;;;;;;8.07;7.22;;;26.30;99.90;;;;;;5092237;28;20199;-70
2022/06/12 08:01:24;;;;;;;10.77;6.57;;;26.40;99.90;;;;;;5091712;28;20584;-70
2022/06/12 08:03:51;;;;;;;9.17;6.97;;;26.40;99.90;;;;;;5092726;28;20285;-70
2022/06/12 08:06:19;;;;;;;7.95;6.30;;;26.50;99.90;;;;;;5092350;28;20318;-70
2022/06/12 08:08:46;;;;;;;9.70;6.30;;;26.50;99.90;;;;;;5088790;28;20202;-70
2022/06/12 08:11:14;;;;;;;9.68;6.43;;;26.60;99.90;;;;;;5091161;28;20196;-69
2022/06/12 08:13:42;;;;;;;7.73;6.03;;;26.60;99.90;;;;;;5092162;28;20208;-69
2022/06/12 08:16:10;;;;;;;9.85;6.35;;;26.70;99.90;;;;;;5091551;28;20216;-68
2022/06/12 08:18:37;;;;;;;8.38;6.32;;;26.70;99.90;;;;;;5092177;28;20653;-69
2022/06/12 08:21:07;;;;;;;14.85;6.65;;;26.70;99.90;;;;;;5091557;28;20302;-69
2022/06/12 08:23:39;;;;;;;9.67;6.50;;;26.80;99.90;;;;;;5091682;28;20285;-71
2022/06/12 08:26:08;;;;;;;7.40;6.43;;;26.70;99.90;;;;;;5091674;28;20601;-70
2022/06/12 08:28:39;;;;;;;7.80;6.38;;;26.80;99.90;;;;;;5092012;28;20266;-70
2022/06/12 08:31:11;;;;;;;8.70;6.22;;;26.80;99.90;;;;;;5091405;28;20190;-70
2022/06/12 08:33:40;;;;;;;7.57;6.05;;;26.80;99.90;;;;;;5091321;28;20194;-71
2022/06/12 08:36:10;;;;;;;9.82;7.03;;;26.90;99.90;;;;;;5091768;28;20198;-71
2022/06/12 08:38:37;;;;;;;9.13;6.63;;;26.90;99.90;;;;;;5084041;28;20665;-71
2022/06/12 08:41:08;;;;;;;9.82;6.20;;;26.90;99.90;;;;;;5086161;28;20311;-67
2022/06/12 08:43:41;;;;;;;7.38;6.28;;;27.00;99.90;;;;;;5091425;28;20250;-70
2022/06/12 08:46:17;;;;;;;8.73;5.72;;;27.00;99.90;;;;;;5092213;28;20283;-69
2022/06/12 08:48:48;;;;;;;6.60;5.88;;;27.00;99.90;;;;;;5091911;28;20197;-69
2022/06/12 08:51:22;;;;;;;6.60;5.72;;;26.90;99.90;;;;;;5091970;28;20193;-71
2022/06/12 08:53:54;;;;;;;7.78;5.85;;;26.90;99.90;;;;;;5090857;28;20649;-70
2022/06/12 08:56:26;;;;;;;7.47;5.85;;;26.90;99.90;;;;;;5085530;28;20232;-70
2022/06/12 08:59:00;;;;;;;7.35;6.05;;;27.00;99.90;;;;;;5091358;28;20611;-72
2022/06/12 09:01:30;;;;;;;9.95;6.00;;;27.00;99.90;;;;;;5091458;28;20308;-70
2022/06/12 09:03:57;;;;;;;7.32;5.65;;;27.10;99.90;;;;;;5089138;28;20587;-71
2022/06/12 09:06:39;;;;;;;9.13;5.72;;;27.10;99.90;;;;;;5089669;28;20232;-72
2022/06/12 09:09:15;;;;;;;7.18;5.85;;;27.10;99.90;;;;;;5091136;28;20288;-70
2022/06/12 09:11:46;;;;;;;6.90;5.63;;;27.10;99.90;;;;;;5090838;28;20191;-69
2022/06/12 09:14:23;;;;;;;7.47;5.30;;;27.10;99.90;;;;;;5082186;28;20195;-71
2022/06/12 09:17:02;;;;;;;6.88;5.50;;;27.10;99.90;;;;;;5091685;28;20191;-72
2022/06/12 09:19:35;;;;;;;7.13;5.85;;;27.20;99.90;;;;;;5091926;28;20273;-70
2022/06/12 09:22:12;;;;;;;7.80;5.63;;;27.20;99.90;;;;;;5091420;28;20555;-72
2022/06/12 09:24:48;;;;;;;8.20;5.80;;;27.30;99.90;;;;;;5090510;28;20601;-71
2022/06/12 09:27:22;;;;;;;8.18;5.50;;;27.30;99.90;;;;;;5091434;28;20285;-71
2022/06/12 09:29:58;;;;;;;7.85;5.47;;;27.30;99.90;;;;;;5091178;28;20620;-70
2022/06/12 09:32:38;;;;;;;6.20;5.57;;;27.30;99.90;;;;;;5091446;28;20269;-72
2022/06/12 09:35:16;;;;;;;8.05;5.75;;;27.40;99.90;;;;;;5091252;28;20275;-71
2022/06/12 09:40:49;;;;;;;8.88;5.85;;;27.60;99.90;;;;;;5091721;28;20216;-70
2022/06/12 09:43:29;;;;;;;22.80;6.10;;;27.60;99.90;;;;;;5095474;28;20218;-70
2022/06/12 09:46:02;;;;;;;6.53;4.90;;;27.70;99.90;;;;;;5094883;28;20709;-70
2022/06/12 09:48:47;;;;;;;7.20;5.50;;;27.70;99.90;;;;;;5094907;28;20193;-71
2022/06/12 09:51:23;;;;;;;7.50;4.95;;;27.70;99.90;;;;;;5095041;28;20572;-71
2022/06/12 09:54:20;;;;;;;6.32;4.93;;;27.90;99.90;;;;;;5094633;28;20235;-70
2022/06/12 09:56:54;;;;;;;7.20;5.10;;;27.90;99.90;;;;;;5068257;28;20234;-71
2022/06/12 09:59:27;;;;;;;6.15;5.00;;;27.90;99.90;;;;;;5094949;28;20198;-70
2022/06/12 10:01:58;;;;;;;6.93;5.18;;;27.90;99.90;;;;;;5094736;28;20230;-68
2022/06/12 10:04:31;;;;;;;12.45;5.40;;;28.00;99.90;;;;;;5091778;28;20315;-70
2022/06/12 10:07:04;;;;;;;10.18;5.50;;;28.00;99.90;;;;;;5094290;28;20286;-71
2022/06/12 10:09:36;;;;;;;7.32;5.60;;;28.10;99.90;;;;;;5094370;28;20212;-72
2022/06/12 10:12:07;;;;;;;6.10;5.43;;;28.10;99.90;;;;;;5094498;28;20199;-73
2022/06/12 10:14:37;;;;;;;7.53;5.32;;;27.90;99.90;;;;;;5093944;28;20198;-71
2022/06/12 10:17:09;;;;;;;6.55;5.25;;;27.90;99.90;;;;;;5094092;28;20268;-69
2022/06/12 10:19:45;;;;;;;9.13;6.45;;;28.00;99.90;;;;;;5094529;28;20245;-71
2022/06/12 10:22:16;;;;;;;8.63;5.80;;;28.10;99.90;;;;;;5094612;28;20256;-72
2022/06/12 10:24:43;;;;;;;7.38;5.45;;;28.20;99.90;;;;;;5093648;28;20233;-70
2022/06/12 10:27:12;;;;;;;6.15;5.55;;;28.20;99.90;;;;;;5094563;28;20210;-70
2022/06/12 10:29:46;;;;;;;11.18;5.82;;;28.30;99.90;;;;;;5093788;28;20289;-70
2022/06/12 10:32:16;;;;;;;7.03;6.03;;;28.40;99.90;;;;;;5094005;28;20195;-70
2022/06/12 10:34:45;;;;;;;7.13;5.43;;;28.40;99.90;;;;;;5094187;28;20296;-71
2022/06/12 10:37:18;;;;;;;9.07;6.20;;;28.50;99.90;;;;;;5093957;28;20202;-70
2022/06/12 10:39:46;;;;;;;9.00;5.50;;;28.60;99.90;;;;;;5093415;28;20266;-69
2022/06/12 10:42:35;;;;;;;6.32;4.85;;;28.80;99.90;;;;;;5094088;28;20321;-70
2022/06/12 10:45:02;;;;;;;7.72;5.82;;;28.80;99.90;;;;;;5093508;28;20717;-71
2022/06/12 10:47:30;;;;;;;6.47;5.50;;;28.90;99.90;;;;;;5092811;28;20285;-69
2022/06/12 10:50:21;;;;;;;7.93;6.22;;;28.90;99.90;;;;;;5093306;28;20198;-72
2022/06/12 10:53:04;;;;;;;8.20;5.65;;;28.80;99.90;;;;;;5082222;28;20190;-70
2022/06/12 10:55:44;;;;;;;7.43;5.50;;;28.70;99.90;;;;;;5093164;28;20237;-72
2022/06/12 10:58:36;;;;;;;7.10;5.35;;;28.60;99.90;;;;;;5093383;28;20783;-71
2022/06/12 11:01:11;;;;;;;10.32;5.97;;;28.40;99.90;;;;;;5093764;28;20264;-72
2022/06/12 11:03:47;;;;;;;6.80;5.57;;;28.20;99.90;;;;;;5091032;28;20228;-70
2022/06/12 11:06:22;;;;;;;7.57;5.80;;;28.10;99.90;;;;;;5073587;28;20279;-70
2022/06/12 11:09:03;;;;;;;8.00;6.65;;;28.10;99.90;;;;;;5091849;28;20724;-71
2022/06/12 11:11:41;;;;;;;7.55;5.63;;;28.20;99.90;;;;;;5084141;28;20195;-71
2022/06/12 11:14:20;;;;;;;5.32;4.82;;;28.30;99.90;;;;;;5093391;28;20222;-70
2022/06/12 11:17:03;;;;;;;9.07;5.85;;;28.40;99.90;;;;;;5093186;28;20190;-69
2022/06/12 11:19:44;;;;;;;6.75;5.30;;;28.40;99.90;;;;;;5091820;28;20282;-73
2022/06/12 11:22:31;;;;;;;5.32;4.45;;;28.40;99.90;;;;;;5092975;28;20610;-69
2022/06/12 11:25:10;;;;;;;7.25;4.80;;;28.30;99.90;;;;;;5091965;28;20226;-69
2022/06/12 11:27:52;;;;;;;6.07;4.78;;;28.30;99.90;;;;;;5080641;28;20200;-69
2022/06/12 11:30:35;;;;;;;7.43;5.50;;;28.20;99.90;;;;;;5092637;28;20691;-70
2022/06/12 11:33:24;;;;;;;5.85;5.07;;;28.20;99.90;;;;;;5072927;28;20276;-72
2022/06/12 11:36:01;;;;;;;6.45;5.35;;;28.10;99.90;;;;;;5072716;28;20642;-70
2022/06/12 11:38:54;;;;;;;7.80;5.57;;;28.10;99.90;;;;;;5091126;28;20194;-69
2022/06/12 11:41:34;;;;;;;7.85;5.43;;;28.10;99.60;;;;;;5092551;28;20274;-71
2022/06/12 11:44:08;;;;;;;6.80;5.13;;;28.10;99.60;;;;;;5090687;28;20237;-68
2022/06/12 11:46:46;;;;;;;5.90;5.20;;;28.00;99.90;;;;;;5083272;28;20543;-69
2022/06/12 11:49:25;;;;;;;5.70;5.05;;;28.00;99.90;;;;;;5079467;28;20249;-70
2022/06/12 11:52:10;;;;;;;5.63;5.03;;;28.00;99.90;;;;;;5087668;28;20282;-70
2022/06/12 11:54:54;;;;;;;5.22;4.68;;;28.00;99.80;;;;;;5091023;28;20276;-70
2022/06/12 11:57:28;;;;;;;9.27;5.18;;;28.10;99.40;;;;;;5090594;28;20321;-69
2022/06/12 12:00:06;;;;;;;6.22;4.60;;;28.20;99.30;;;;;;5088527;28;20280;-69
2022/06/12 12:02:50;;;;;;;5.75;4.88;;;28.30;99.30;;;;;;5091953;28;20675;-69
2022/06/12 12:05:45;;;;;;;6.68;5.10;;;28.40;99.30;;;;;;5088803;28;20244;-70
2022/06/12 12:08:32;;;;;;;5.43;4.78;;;28.50;99.50;;;;;;5070300;28;20661;-71
2022/06/12 12:11:08;;;;;;;6.63;5.43;;;28.50;99.20;;;;;;5091225;28;20361;-70
2022/06/12 12:13:42;;;;;;;6.82;5.50;;;28.60;99.90;;;;;;5091176;28;20690;-70
2022/06/12 12:16:18;;;;;;;7.70;5.32;;;28.60;99.40;;;;;;5091442;28;20203;-72
2022/06/12 12:18:50;;;;;;;7.95;4.90;;;28.50;99.50;;;;;;5091176;28;20601;-70
2022/06/12 12:21:26;;;;;;;6.68;4.88;;;28.40;99.60;;;;;;5091543;28;20195;-71
2022/06/12 12:23:53;;;;;;;5.90;5.10;;;28.40;99.10;;;;;;5091619;28;20565;-71
2022/06/12 12:26:25;;;;;;;7.43;5.32;;;28.30;99.30;;;;;;5092153;28;20228;-71
2022/06/12 12:28:54;;;;;;;7.30;5.00;;;28.30;99.00;;;;;;5091901;28;20276;-70
2022/06/12 12:31:23;;;;;;;6.60;4.70;;;28.20;99.60;;;;;;5090990;28;20625;-69
2022/06/12 12:33:51;;;;;;;7.78;4.90;;;28.30;99.30;;;;;;5091719;28;20293;-70
2022/06/12 12:41:56;;;;;;;6.15;4.07;;;28.20;98.70;;;;;;5087590;28;20248;-71
2022/06/12 12:44:32;;;;;;;4.95;4.10;;;28.20;98.50;;;;;;5090543;28;20206;-71
2022/06/12 12:47:01;;;;;;;5.13;4.25;;;28.20;98.00;;;;;;5090687;28;20193;-70
2022/06/12 12:49:30;;;;;;;5.28;4.78;;;28.20;97.50;;;;;;5090617;28;20257;-69
2022/06/12 12:52:12;;;;;;;5.70;4.57;;;28.20;97.60;;;;;;5090071;28;20694;-70
2022/06/12 12:54:45;;;;;;;6.55;4.10;;;28.30;97.70;;;;;;5089583;28;20296;-72
2022/06/12 12:57:15;;;;;;;6.47;4.03;;;28.20;97.70;;;;;;5091303;28;20696;-72
2022/06/12 12:59:45;;;;;;;6.05;4.60;;;28.30;97.40;;;;;;5087264;28;20292;-71
2022/06/12 13:02:25;;;;;;;4.70;4.10;;;28.20;97.50;;;;;;5087721;28;20574;-70
2022/06/12 13:04:55;;;;;;;7.68;4.10;;;28.30;97.50;;;;;;5086668;28;20189;-72
2022/06/12 13:07:49;;;;;;;4.53;4.10;;;28.30;97.50;;;;;;5088791;28;20186;-70
2022/06/12 13:10:37;;;;;;;4.90;3.97;;;28.40;97.10;;;;;;5089347;28;20302;-72
2022/06/12 13:13:30;;;;;;;5.70;4.45;;;28.40;97.20;;;;;;5088720;28;20183;-68
2022/06/12 13:16:04;;;;;;;5.93;4.60;;;28.50;96.80;;;;;;5090203;28;20230;-69
2022/06/12 13:18:48;;;;;;;4.50;4.10;;;28.60;96.40;;;;;;5091327;28;20284;-72
2022/06/12 13:21:22;;;;;;;5.32;3.97;;;28.60;96.50;;;;;;5092460;28;20202;-70